sensor_id;sensor_type;location;lat;lon;timestamp;P1;durP1;ratioP1;P2;durP2;ratioP2
7519;SDS011;3801;48.876;10.184;2023-05-01T00:03:17;10.30;;;6.70;;
7519;SDS011;3801;48.876;10.184;2023-05-01T00:08:20;7.43;;;5.90;;
7519;SDS011;3801;48.876;10.184;2023-05-01T00:13:23;11.43;;;6.33;;
7519;SDS011;3801;48.876;10.184;2023-05-01T00:18:29;17.10;;;11.07;;
7519;SDS011;3801;48.876;10.184;2023-05-01T00:23:33;27.13;;;15.90;;
7519;SDS011;3801;48.876;10.184;2023-05-01T00:28:36;7.20;;;5.73;;
7519;SDS011;3801;48.876;10.184;2023-05-01T00:33:41;7.73;;;5.80;;
7519;SDS011;3801;48.876;10.184;2023-05-01T00:38:44;5.70;;;4.63;;
7519;SDS011;3801;48.876;10.184;2023-05-01T00:43:48;7.93;;;4.83;;
7519;SDS011;3801;48.876;10.184;2023-05-01T00:48:53;6.07;;;4.60;;
7519;SDS011;3801;48.876;10.184;2023-05-01T00:53:56;6.80;;;4.50;;
7519;SDS011;3801;48.876;10.184;2023-05-01T00:59:01;6.50;;;3.80;;
7519;SDS011;3801;48.876;10.184;2023-05-01T01:04:07;6.53;;;4.10;;
7519;SDS011;3801;48.876;10.184;2023-05-01T01:09:12;10.40;;;5.20;;
7519;SDS011;3801;48.876;10.184;2023-05-01T01:14:20;6.17;;;4.40;;
7519;SDS011;3801;48.876;10.184;2023-05-01T01:19:39;6.13;;;4.57;;
7519;SDS011;3801;48.876;10.184;2023-05-01T01:24:46;6.77;;;5.03;;
7519;SDS011;3801;48.876;10.184;2023-05-01T01:29:59;6.10;;;4.77;;
7519;SDS011;3801;48.876;10.184;2023-05-01T01:35:13;6.30;;;4.80;;
7519;SDS011;3801;48.876;10.184;2023-05-01T01:40:21;7.83;;;5.30;;
7519;SDS011;3801;48.876;10.184;2023-05-01T01:45:28;6.90;;;5.13;;
7519;SDS011;3801;48.876;10.184;2023-05-01T01:50:35;7.67;;;4.70;;
7519;SDS011;3801;48.876;10.184;2023-05-01T01:55:40;9.20;;;5.53;;
7519;SDS011;3801;48.876;10.184;2023-05-01T02:00:45;6.77;;;4.80;;
7519;SDS011;3801;48.876;10.184;2023-05-01T02:05:51;6.27;;;5.27;;
7519;SDS011;3801;48.876;10.184;2023-05-01T02:10:55;6.50;;;4.87;;
7519;SDS011;3801;48.876;10.184;2023-05-01T02:16:03;6.40;;;5.07;;
7519;SDS011;3801;48.876;10.184;2023-05-01T02:21:08;5.60;;;4.93;;
7519;SDS011;3801;48.876;10.184;2023-05-01T02:26:14;6.83;;;4.90;;
7519;SDS011;3801;48.876;10.184;2023-05-01T02:31:18;5.20;;;4.37;;
7519;SDS011;3801;48.876;10.184;2023-05-01T02:36:23;5.37;;;4.33;;
7519;SDS011;3801;48.876;10.184;2023-05-01T02:41:29;5.27;;;4.47;;
7519;SDS011;3801;48.876;10.184;2023-05-01T02:46:34;5.50;;;4.60;;
7519;SDS011;3801;48.876;10.184;2023-05-01T02:51:39;6.23;;;4.07;;
7519;SDS011;3801;48.876;10.184;2023-05-01T02:56:43;6.00;;;4.90;;
7519;SDS011;3801;48.876;10.184;2023-05-01T03:01:46;6.20;;;4.67;;
7519;SDS011;3801;48.876;10.184;2023-05-01T03:06:51;5.57;;;4.57;;
7519;SDS011;3801;48.876;10.184;2023-05-01T03:11:55;6.20;;;4.23;;
7519;SDS011;3801;48.876;10.184;2023-05-01T03:16:58;6.17;;;4.77;;
7519;SDS011;3801;48.876;10.184;2023-05-01T03:22:03;4.17;;;3.77;;
7519;SDS011;3801;48.876;10.184;2023-05-01T03:27:06;4.60;;;3.70;;
7519;SDS011;3801;48.876;10.184;2023-05-01T03:32:10;5.37;;;3.70;;
7519;SDS011;3801;48.876;10.184;2023-05-01T03:37:15;5.40;;;3.93;;
7519;SDS011;3801;48.876;10.184;2023-05-01T03:42:18;6.63;;;4.13;;
7519;SDS011;3801;48.876;10.184;2023-05-01T03:47:23;6.40;;;4.47;;
7519;SDS011;3801;48.876;10.184;2023-05-01T03:52:28;5.73;;;4.60;;
7519;SDS011;3801;48.876;10.184;2023-05-01T03:57:32;6.93;;;3.97;;
7519;SDS011;3801;48.876;10.184;2023-05-01T04:02:35;5.00;;;4.07;;
7519;SDS011;3801;48.876;10.184;2023-05-01T04:07:40;4.83;;;4.03;;
7519;SDS011;3801;48.876;10.184;2023-05-01T04:12:44;5.70;;;4.17;;
7519;SDS011;3801;48.876;10.184;2023-05-01T04:17:48;7.33;;;4.40;;
7519;SDS011;3801;48.876;10.184;2023-05-01T04:22:53;5.33;;;4.17;;
7519;SDS011;3801;48.876;10.184;2023-05-01T04:27:57;5.83;;;4.57;;
7519;SDS011;3801;48.876;10.184;2023-05-01T04:33:01;4.87;;;4.07;;
7519;SDS011;3801;48.876;10.184;2023-05-01T04:38:07;6.37;;;5.00;;
7519;SDS011;3801;48.876;10.184;2023-05-01T04:43:12;6.87;;;4.47;;
7519;SDS011;3801;48.876;10.184;2023-05-01T04:48:18;6.80;;;4.97;;
7519;SDS011;3801;48.876;10.184;2023-05-01T04:53:22;5.43;;;4.17;;
7519;SDS011;3801;48.876;10.184;2023-05-01T04:58:26;5.37;;;4.30;;
7519;SDS011;3801;48.876;10.184;2023-05-01T05:03:33;8.13;;;4.57;;
7519;SDS011;3801;48.876;10.184;2023-05-01T05:08:39;6.83;;;4.30;;
7519;SDS011;3801;48.876;10.184;2023-05-01T05:13:43;4.73;;;4.17;;
7519;SDS011;3801;48.876;10.184;2023-05-01T05:18:47;6.83;;;5.37;;
7519;SDS011;3801;48.876;10.184;2023-05-01T05:23:53;7.53;;;5.23;;
7519;SDS011;3801;48.876;10.184;2023-05-01T05:28:57;6.97;;;5.30;;
7519;SDS011;3801;48.876;10.184;2023-05-01T05:34:01;8.57;;;6.67;;
7519;SDS011;3801;48.876;10.184;2023-05-01T05:39:05;5.53;;;4.73;;
7519;SDS011;3801;48.876;10.184;2023-05-01T05:44:09;7.00;;;5.37;;
7519;SDS011;3801;48.876;10.184;2023-05-01T05:49:13;11.70;;;7.17;;
7519;SDS011;3801;48.876;10.184;2023-05-01T05:54:18;8.73;;;6.13;;
7519;SDS011;3801;48.876;10.184;2023-05-01T05:59:23;10.80;;;7.37;;
7519;SDS011;3801;48.876;10.184;2023-05-01T06:04:26;9.97;;;7.03;;
7519;SDS011;3801;48.876;10.184;2023-05-01T06:09:31;8.33;;;5.73;;
7519;SDS011;3801;48.876;10.184;2023-05-01T06:14:34;7.83;;;5.93;;
7519;SDS011;3801;48.876;10.184;2023-05-01T06:19:38;10.43;;;6.10;;
7519;SDS011;3801;48.876;10.184;2023-05-01T06:24:45;7.07;;;6.00;;
7519;SDS011;3801;48.876;10.184;2023-05-01T06:29:49;8.73;;;6.37;;
7519;SDS011;3801;48.876;10.184;2023-05-01T06:34:52;13.00;;;5.90;;
7519;SDS011;3801;48.876;10.184;2023-05-01T06:39:58;7.90;;;6.40;;
7519;SDS011;3801;48.876;10.184;2023-05-01T06:45:02;6.93;;;5.97;;
7519;SDS011;3801;48.876;10.184;2023-05-01T06:50:06;10.57;;;6.80;;
7519;SDS011;3801;48.876;10.184;2023-05-01T06:55:11;8.13;;;6.37;;
7519;SDS011;3801;48.876;10.184;2023-05-01T07:00:15;9.17;;;7.07;;
7519;SDS011;3801;48.876;10.184;2023-05-01T07:05:19;10.80;;;7.40;;
7519;SDS011;3801;48.876;10.184;2023-05-01T07:10:24;11.27;;;6.80;;
7519;SDS011;3801;48.876;10.184;2023-05-01T07:15:28;8.23;;;6.70;;
7519;SDS011;3801;48.876;10.184;2023-05-01T07:20:31;10.27;;;6.70;;
7519;SDS011;3801;48.876;10.184;2023-05-01T07:25:37;15.83;;;8.57;;
7519;SDS011;3801;48.876;10.184;2023-05-01T07:30:42;9.50;;;7.80;;
7519;SDS011;3801;48.876;10.184;2023-05-01T07:35:45;32.10;;;14.27;;
7519;SDS011;3801;48.876;10.184;2023-05-01T07:40:52;13.10;;;8.93;;
7519;SDS011;3801;48.876;10.184;2023-05-01T07:45:56;14.13;;;7.60;;
7519;SDS011;3801;48.876;10.184;2023-05-01T07:51:00;10.40;;;8.13;;
7519;SDS011;3801;48.876;10.184;2023-05-01T07:56:07;16.20;;;10.40;;
7519;SDS011;3801;48.876;10.184;2023-05-01T08:01:11;13.27;;;8.33;;
7519;SDS011;3801;48.876;10.184;2023-05-01T08:06:14;13.53;;;9.67;;
7519;SDS011;3801;48.876;10.184;2023-05-01T08:11:19;8.10;;;6.77;;
7519;SDS011;3801;48.876;10.184;2023-05-01T08:16:23;10.47;;;7.87;;
7519;SDS011;3801;48.876;10.184;2023-05-01T08:21:26;12.30;;;7.00;;
7519;SDS011;3801;48.876;10.184;2023-05-01T08:26:31;9.77;;;7.10;;
7519;SDS011;3801;48.876;10.184;2023-05-01T08:31:34;10.90;;;7.77;;
7519;SDS011;3801;48.876;10.184;2023-05-01T08:36:38;9.63;;;7.00;;
7519;SDS011;3801;48.876;10.184;2023-05-01T08:41:44;11.13;;;7.43;;
7519;SDS011;3801;48.876;10.184;2023-05-01T08:46:49;10.47;;;7.00;;
7519;SDS011;3801;48.876;10.184;2023-05-01T08:51:55;11.83;;;8.40;;
7519;SDS011;3801;48.876;10.184;2023-05-01T08:57:01;12.13;;;7.63;;
7519;SDS011;3801;48.876;10.184;2023-05-01T09:02:06;10.97;;;7.47;;
7519;SDS011;3801;48.876;10.184;2023-05-01T09:07:10;10.47;;;7.43;;
7519;SDS011;3801;48.876;10.184;2023-05-01T09:12:17;11.17;;;7.77;;
7519;SDS011;3801;48.876;10.184;2023-05-01T09:17:23;11.83;;;7.57;;
7519;SDS011;3801;48.876;10.184;2023-05-01T09:22:27;9.47;;;7.10;;
7519;SDS011;3801;48.876;10.184;2023-05-01T09:27:33;10.07;;;6.97;;
7519;SDS011;3801;48.876;10.184;2023-05-01T09:32:37;9.80;;;7.20;;
7519;SDS011;3801;48.876;10.184;2023-05-01T09:37:43;10.37;;;7.20;;
7519;SDS011;3801;48.876;10.184;2023-05-01T09:42:53;9.97;;;7.10;;
7519;SDS011;3801;48.876;10.184;2023-05-01T09:48:06;10.10;;;7.77;;
7519;SDS011;3801;48.876;10.184;2023-05-01T09:53:11;8.80;;;7.50;;
7519;SDS011;3801;48.876;10.184;2023-05-01T09:58:26;15.00;;;7.90;;
7519;SDS011;3801;48.876;10.184;2023-05-01T10:03:29;10.40;;;8.00;;
7519;SDS011;3801;48.876;10.184;2023-05-01T10:08:43;11.50;;;7.27;;
7519;SDS011;3801;48.876;10.184;2023-05-01T10:13:56;10.83;;;8.30;;
7519;SDS011;3801;48.876;10.184;2023-05-01T10:19:07;11.33;;;8.23;;
7519;SDS011;3801;48.876;10.184;2023-05-01T10:24:12;13.60;;;7.40;;
7519;SDS011;3801;48.876;10.184;2023-05-01T10:29:18;9.13;;;6.53;;
7519;SDS011;3801;48.876;10.184;2023-05-01T10:34:24;8.77;;;7.10;;
7519;SDS011;3801;48.876;10.184;2023-05-01T10:39:29;9.27;;;7.20;;
7519;SDS011;3801;48.876;10.184;2023-05-01T10:44:34;10.23;;;7.50;;
7519;SDS011;3801;48.876;10.184;2023-05-01T11:00:21;8.53;;;7.00;;
7519;SDS011;3801;48.876;10.184;2023-05-01T11:10:43;8.23;;;6.47;;
7519;SDS011;3801;48.876;10.184;2023-05-01T11:15:48;8.10;;;6.30;;
7519;SDS011;3801;48.876;10.184;2023-05-01T11:20:51;7.50;;;6.63;;
7519;SDS011;3801;48.876;10.184;2023-05-01T11:26:01;9.07;;;6.20;;
7519;SDS011;3801;48.876;10.184;2023-05-01T11:31:08;7.43;;;6.00;;
7519;SDS011;3801;48.876;10.184;2023-05-01T11:36:12;8.40;;;6.07;;
7519;SDS011;3801;48.876;10.184;2023-05-01T11:41:18;7.87;;;6.20;;
7519;SDS011;3801;48.876;10.184;2023-05-01T11:46:26;11.00;;;7.17;;
7519;SDS011;3801;48.876;10.184;2023-05-01T11:51:30;7.00;;;5.67;;
7519;SDS011;3801;48.876;10.184;2023-05-01T11:56:34;6.97;;;5.60;;
7519;SDS011;3801;48.876;10.184;2023-05-01T12:01:39;7.40;;;5.90;;
7519;SDS011;3801;48.876;10.184;2023-05-01T12:06:44;10.97;;;6.77;;
7519;SDS011;3801;48.876;10.184;2023-05-01T12:11:49;7.23;;;5.87;;
7519;SDS011;3801;48.876;10.184;2023-05-01T12:16:55;8.90;;;6.07;;
7519;SDS011;3801;48.876;10.184;2023-05-01T12:22:05;6.77;;;5.43;;
7519;SDS011;3801;48.876;10.184;2023-05-01T12:27:09;6.47;;;5.77;;
7519;SDS011;3801;48.876;10.184;2023-05-01T12:32:14;8.43;;;5.87;;
7519;SDS011;3801;48.876;10.184;2023-05-01T12:37:17;8.17;;;6.00;;
7519;SDS011;3801;48.876;10.184;2023-05-01T12:42:21;6.90;;;5.30;;
7519;SDS011;3801;48.876;10.184;2023-05-01T12:47:25;9.03;;;5.57;;
7519;SDS011;3801;48.876;10.184;2023-05-01T12:52:29;7.07;;;5.63;;
7519;SDS011;3801;48.876;10.184;2023-05-01T12:57:32;8.17;;;5.70;;
7519;SDS011;3801;48.876;10.184;2023-05-01T13:02:37;9.83;;;6.27;;
7519;SDS011;3801;48.876;10.184;2023-05-01T13:07:46;9.80;;;6.27;;
7519;SDS011;3801;48.876;10.184;2023-05-01T13:12:49;8.03;;;5.40;;
7519;SDS011;3801;48.876;10.184;2023-05-01T13:17:54;8.30;;;5.70;;
7519;SDS011;3801;48.876;10.184;2023-05-01T13:23:08;6.53;;;5.03;;
7519;SDS011;3801;48.876;10.184;2023-05-01T13:28:16;8.20;;;5.03;;
7519;SDS011;3801;48.876;10.184;2023-05-01T13:33:21;5.70;;;4.93;;
7519;SDS011;3801;48.876;10.184;2023-05-01T13:38:24;5.60;;;4.83;;
7519;SDS011;3801;48.876;10.184;2023-05-01T13:43:27;5.50;;;4.53;;
7519;SDS011;3801;48.876;10.184;2023-05-01T13:48:32;6.17;;;4.87;;
7519;SDS011;3801;48.876;10.184;2023-05-01T13:53:37;6.60;;;4.80;;
7519;SDS011;3801;48.876;10.184;2023-05-01T13:58:40;5.57;;;4.37;;
7519;SDS011;3801;48.876;10.184;2023-05-01T14:03:45;5.97;;;4.57;;
7519;SDS011;3801;48.876;10.184;2023-05-01T14:08:49;5.83;;;4.60;;
7519;SDS011;3801;48.876;10.184;2023-05-01T14:13:53;5.13;;;4.63;;
7519;SDS011;3801;48.876;10.184;2023-05-01T14:18:58;4.80;;;4.30;;
7519;SDS011;3801;48.876;10.184;2023-05-01T14:24:01;6.93;;;4.47;;
7519;SDS011;3801;48.876;10.184;2023-05-01T14:29:05;5.60;;;4.20;;
7519;SDS011;3801;48.876;10.184;2023-05-01T14:34:11;5.70;;;4.97;;
7519;SDS011;3801;48.876;10.184;2023-05-01T14:39:17;5.63;;;4.40;;
7519;SDS011;3801;48.876;10.184;2023-05-01T14:44:20;6.03;;;4.57;;
7519;SDS011;3801;48.876;10.184;2023-05-01T14:49:27;5.47;;;4.50;;
7519;SDS011;3801;48.876;10.184;2023-05-01T14:54:30;4.73;;;4.33;;
7519;SDS011;3801;48.876;10.184;2023-05-01T14:59:38;4.93;;;4.40;;
7519;SDS011;3801;48.876;10.184;2023-05-01T15:04:43;5.47;;;4.63;;
7519;SDS011;3801;48.876;10.184;2023-05-01T15:09:46;6.90;;;4.30;;
7519;SDS011;3801;48.876;10.184;2023-05-01T15:14:50;4.80;;;4.30;;
7519;SDS011;3801;48.876;10.184;2023-05-01T15:19:55;4.43;;;4.00;;
7519;SDS011;3801;48.876;10.184;2023-05-01T15:24:58;5.87;;;4.70;;
7519;SDS011;3801;48.876;10.184;2023-05-01T15:30:02;4.47;;;3.90;;
7519;SDS011;3801;48.876;10.184;2023-05-01T15:35:07;4.70;;;4.30;;
7519;SDS011;3801;48.876;10.184;2023-05-01T15:40:11;5.83;;;4.43;;
7519;SDS011;3801;48.876;10.184;2023-05-01T15:45:14;5.47;;;4.43;;
7519;SDS011;3801;48.876;10.184;2023-05-01T15:50:19;4.93;;;3.93;;
7519;SDS011;3801;48.876;10.184;2023-05-01T15:55:24;4.90;;;3.83;;
7519;SDS011;3801;48.876;10.184;2023-05-01T16:00:27;5.80;;;4.97;;
7519;SDS011;3801;48.876;10.184;2023-05-01T16:05:33;4.67;;;4.13;;
7519;SDS011;3801;48.876;10.184;2023-05-01T16:10:38;6.97;;;4.43;;
7519;SDS011;3801;48.876;10.184;2023-05-01T16:15:42;5.93;;;4.47;;
7519;SDS011;3801;48.876;10.184;2023-05-01T16:20:46;6.10;;;4.77;;
7519;SDS011;3801;48.876;10.184;2023-05-01T16:25:54;7.03;;;5.97;;
7519;SDS011;3801;48.876;10.184;2023-05-01T16:30:57;6.80;;;5.33;;
7519;SDS011;3801;48.876;10.184;2023-05-01T16:36:03;7.63;;;5.50;;
7519;SDS011;3801;48.876;10.184;2023-05-01T16:41:07;8.10;;;5.70;;
7519;SDS011;3801;48.876;10.184;2023-05-01T16:46:11;7.80;;;5.30;;
7519;SDS011;3801;48.876;10.184;2023-05-01T16:51:16;7.83;;;5.53;;
7519;SDS011;3801;48.876;10.184;2023-05-01T16:56:20;5.53;;;4.30;;
7519;SDS011;3801;48.876;10.184;2023-05-01T17:01:24;7.20;;;4.97;;
7519;SDS011;3801;48.876;10.184;2023-05-01T17:06:29;5.70;;;5.00;;
7519;SDS011;3801;48.876;10.184;2023-05-01T17:11:32;5.77;;;4.77;;
7519;SDS011;3801;48.876;10.184;2023-05-01T17:16:35;5.87;;;5.03;;
7519;SDS011;3801;48.876;10.184;2023-05-01T17:21:41;8.63;;;5.10;;
7519;SDS011;3801;48.876;10.184;2023-05-01T17:26:45;7.27;;;6.00;;
7519;SDS011;3801;48.876;10.184;2023-05-01T17:31:50;8.93;;;5.13;;
7519;SDS011;3801;48.876;10.184;2023-05-01T17:36:57;6.93;;;5.63;;
7519;SDS011;3801;48.876;10.184;2023-05-01T17:42:00;7.33;;;4.87;;
7519;SDS011;3801;48.876;10.184;2023-05-01T17:47:05;7.83;;;4.80;;
7519;SDS011;3801;48.876;10.184;2023-05-01T17:52:10;5.70;;;4.90;;
7519;SDS011;3801;48.876;10.184;2023-05-01T17:57:14;6.83;;;4.43;;
7519;SDS011;3801;48.876;10.184;2023-05-01T18:08:07;8.70;;;5.30;;
7519;SDS011;3801;48.876;10.184;2023-05-01T18:13:14;6.03;;;5.37;;
7519;SDS011;3801;48.876;10.184;2023-05-01T18:18:18;7.07;;;5.03;;
7519;SDS011;3801;48.876;10.184;2023-05-01T18:23:23;5.53;;;4.40;;
7519;SDS011;3801;48.876;10.184;2023-05-01T18:28:27;6.73;;;5.13;;
7519;SDS011;3801;48.876;10.184;2023-05-01T18:33:30;6.40;;;5.47;;
7519;SDS011;3801;48.876;10.184;2023-05-01T18:38:36;8.63;;;6.53;;
7519;SDS011;3801;48.876;10.184;2023-05-01T18:43:40;5.13;;;4.40;;
7519;SDS011;3801;48.876;10.184;2023-05-01T18:48:43;5.67;;;4.40;;
7519;SDS011;3801;48.876;10.184;2023-05-01T18:53:49;16.17;;;10.63;;
7519;SDS011;3801;48.876;10.184;2023-05-01T18:58:53;20.60;;;11.70;;
7519;SDS011;3801;48.876;10.184;2023-05-01T19:03:57;8.03;;;5.10;;
7519;SDS011;3801;48.876;10.184;2023-05-01T19:09:03;5.40;;;4.17;;
7519;SDS011;3801;48.876;10.184;2023-05-01T19:14:07;5.50;;;4.63;;
7519;SDS011;3801;48.876;10.184;2023-05-01T19:19:10;5.63;;;4.60;;
7519;SDS011;3801;48.876;10.184;2023-05-01T19:24:15;5.93;;;4.87;;
7519;SDS011;3801;48.876;10.184;2023-05-01T19:29:19;5.83;;;4.40;;
7519;SDS011;3801;48.876;10.184;2023-05-01T19:34:24;5.70;;;4.50;;
7519;SDS011;3801;48.876;10.184;2023-05-01T19:39:29;5.23;;;4.13;;
7519;SDS011;3801;48.876;10.184;2023-05-01T19:44:33;5.70;;;4.40;;
7519;SDS011;3801;48.876;10.184;2023-05-01T19:49:37;7.53;;;4.63;;
7519;SDS011;3801;48.876;10.184;2023-05-01T19:54:43;8.00;;;4.67;;
7519;SDS011;3801;48.876;10.184;2023-05-01T19:59:46;5.83;;;4.90;;
7519;SDS011;3801;48.876;10.184;2023-05-01T20:04:50;6.47;;;4.40;;
7519;SDS011;3801;48.876;10.184;2023-05-01T20:09:56;7.13;;;4.93;;
7519;SDS011;3801;48.876;10.184;2023-05-01T20:15:00;7.83;;;5.47;;
7519;SDS011;3801;48.876;10.184;2023-05-01T20:20:05;7.97;;;4.97;;
7519;SDS011;3801;48.876;10.184;2023-05-01T20:25:10;5.60;;;4.93;;
7519;SDS011;3801;48.876;10.184;2023-05-01T20:30:14;8.70;;;4.77;;
7519;SDS011;3801;48.876;10.184;2023-05-01T20:35:19;5.97;;;4.87;;
7519;SDS011;3801;48.876;10.184;2023-05-01T20:40:24;7.20;;;4.97;;
7519;SDS011;3801;48.876;10.184;2023-05-01T20:45:27;6.53;;;5.03;;
7519;SDS011;3801;48.876;10.184;2023-05-01T20:50:31;6.53;;;5.50;;
7519;SDS011;3801;48.876;10.184;2023-05-01T20:55:38;7.43;;;5.30;;
7519;SDS011;3801;48.876;10.184;2023-05-01T21:00:41;7.17;;;5.63;;
7519;SDS011;3801;48.876;10.184;2023-05-01T21:05:45;6.97;;;5.27;;
7519;SDS011;3801;48.876;10.184;2023-05-01T21:10:50;7.30;;;5.70;;
7519;SDS011;3801;48.876;10.184;2023-05-01T21:15:55;12.77;;;7.23;;
7519;SDS011;3801;48.876;10.184;2023-05-01T21:21:00;12.50;;;9.27;;
7519;SDS011;3801;48.876;10.184;2023-05-01T21:26:06;14.83;;;10.20;;
7519;SDS011;3801;48.876;10.184;2023-05-01T21:31:09;12.83;;;9.43;;
7519;SDS011;3801;48.876;10.184;2023-05-01T21:36:14;12.57;;;8.67;;
7519;SDS011;3801;48.876;10.184;2023-05-01T21:41:20;13.77;;;9.33;;
7519;SDS011;3801;48.876;10.184;2023-05-01T21:46:24;12.67;;;8.93;;
7519;SDS011;3801;48.876;10.184;2023-05-01T21:51:28;14.00;;;9.17;;
7519;SDS011;3801;48.876;10.184;2023-05-01T21:56:34;11.33;;;8.70;;
7519;SDS011;3801;48.876;10.184;2023-05-01T22:01:37;14.60;;;9.83;;
7519;SDS011;3801;48.876;10.184;2023-05-01T22:06:42;13.60;;;9.27;;
7519;SDS011;3801;48.876;10.184;2023-05-01T22:11:48;15.53;;;9.47;;
7519;SDS011;3801;48.876;10.184;2023-05-01T22:16:51;11.13;;;8.40;;
7519;SDS011;3801;48.876;10.184;2023-05-01T22:21:55;11.20;;;7.40;;
7519;SDS011;3801;48.876;10.184;2023-05-01T22:27:01;9.10;;;7.13;;
7519;SDS011;3801;48.876;10.184;2023-05-01T22:32:04;9.97;;;6.70;;
7519;SDS011;3801;48.876;10.184;2023-05-01T22:37:09;9.13;;;6.70;;
7519;SDS011;3801;48.876;10.184;2023-05-01T22:42:14;9.23;;;6.57;;
7519;SDS011;3801;48.876;10.184;2023-05-01T22:47:18;10.17;;;6.27;;
7519;SDS011;3801;48.876;10.184;2023-05-01T22:52:22;10.53;;;6.90;;
7519;SDS011;3801;48.876;10.184;2023-05-01T22:57:27;10.13;;;6.70;;
7519;SDS011;3801;48.876;10.184;2023-05-01T23:02:31;11.60;;;7.40;;
7519;SDS011;3801;48.876;10.184;2023-05-01T23:07:35;9.43;;;6.63;;
7519;SDS011;3801;48.876;10.184;2023-05-01T23:12:41;9.27;;;6.60;;
7519;SDS011;3801;48.876;10.184;2023-05-01T23:17:45;9.77;;;6.90;;
7519;SDS011;3801;48.876;10.184;2023-05-01T23:22:48;10.17;;;7.00;;
7519;SDS011;3801;48.876;10.184;2023-05-01T23:27:54;9.87;;;6.60;;
7519;SDS011;3801;48.876;10.184;2023-05-01T23:32:57;8.87;;;6.20;;
7519;SDS011;3801;48.876;10.184;2023-05-01T23:38:01;10.97;;;7.67;;
7519;SDS011;3801;48.876;10.184;2023-05-01T23:43:07;10.63;;;7.10;;
7519;SDS011;3801;48.876;10.184;2023-05-01T23:48:10;10.50;;;7.37;;
7519;SDS011;3801;48.876;10.184;2023-05-01T23:53:15;10.20;;;7.97;;
7519;SDS011;3801;48.876;10.184;2023-05-01T23:58:20;11.43;;;7.90;;
